Main page
METAR-TAF:

METAR-TAF

Airports :

Tiree, Scotland

Tiree Airport

latitude: 56-30N, longitude: 006-53W, elevation: 12 m

Current weather observation

The report was made 35 minutes ago, at 22:50 UTC
Wind 5 kt from the North
Temperature 12°C
Humidity 100%
Pressure 999 hPa
Visibility 10 km or more

METAR: EGPU 172250Z AUTO 36005KT 9999 FEW006/// BKN017/// 12/12 Q0999 RERA

Time: 00:25 (23:25 UTC)

Forecast

The report was made 9 hours and 25 minutes ago, at 14:00 UTC
Forecast valid from 17 at 15 UTC to 17 at 24 UTC
Wind 15 kt from the South/Southwest
Visibility 10 km or more
Scattered clouds at a height of 1500 ft
Probability 30% :
Temporary
from 17 at 16 UTC to 17 at 18 UTC
Visibility: 6000 m
Broken clouds at a height of 1200 ft
rain showers

TAF: EGPU 171400Z 1715/1724 21015KT 9999 SCT015 PROB30 TEMPO 1716/1718 6000 SHRA BKN012

Weather observations and forecasts of more than 4000 airports (METAR and TAF reports).

The available stations are represented by yellow and red dots on the map.

Hover mouse over dot to see the name of the station.

Then click to see weather observations and forecasts.

To change the map : click on the green buttons with a black cross to zoom in, on the green button with a dash to zoom out, or on the green arrows for adjacent maps.


METAR-TAF: